createdAt,value
2017-10-19T00:00:14.071Z,817.62
2017-10-19T00:01:14.680Z,817.60
2017-10-19T00:02:15.290Z,817.62
2017-10-19T00:03:15.908Z,817.61
2017-10-19T00:04:16.516Z,817.60
2017-10-19T00:05:17.127Z,817.57
2017-10-19T00:06:17.823Z,817.56
2017-10-19T00:07:18.431Z,817.57
2017-10-19T00:08:19.043Z,817.55
2017-10-19T00:09:19.657Z,817.57
2017-10-19T00:10:20.265Z,817.55
2017-10-19T00:11:20.925Z,817.59
2017-10-19T00:12:21.536Z,817.61
2017-10-19T00:13:22.148Z,817.59
2017-10-19T00:14:22.759Z,817.61
2017-10-19T00:15:23.367Z,817.59
2017-10-19T00:16:24.032Z,817.59
2017-10-19T00:17:24.638Z,817.57
2017-10-19T00:18:25.248Z,817.55
2017-10-19T00:19:25.864Z,817.55
2017-10-19T00:20:26.475Z,817.51
2017-10-19T00:21:27.166Z,817.51
2017-10-19T00:22:27.778Z,817.50
2017-10-19T00:23:28.395Z,817.49
2017-10-19T00:24:29.007Z,817.45
2017-10-19T00:25:29.620Z,817.46
2017-10-19T00:26:30.309Z,817.45
2017-10-19T00:27:30.918Z,817.41
2017-10-19T00:28:31.533Z,817.39
2017-10-19T00:29:32.141Z,817.40
2017-10-19T00:30:32.751Z,817.38
2017-10-19T00:31:33.392Z,817.36
2017-10-19T00:32:34.001Z,817.38
2017-10-19T00:33:34.611Z,817.42
2017-10-19T00:34:35.220Z,817.40
2017-10-19T00:35:35.836Z,817.37
2017-10-19T00:36:36.496Z,817.38
2017-10-19T00:37:37.105Z,817.36
2017-10-19T00:38:37.715Z,817.33
2017-10-19T00:39:38.326Z,817.33
2017-10-19T00:40:38.936Z,817.36
2017-10-19T00:41:39.580Z,817.32
2017-10-19T00:42:40.216Z,817.37
2017-10-19T00:43:40.834Z,817.30
2017-10-19T00:44:41.439Z,817.31
2017-10-19T00:45:42.050Z,817.32
2017-10-19T00:46:42.667Z,817.32
2017-10-19T00:47:43.270Z,817.31
2017-10-19T00:48:43.881Z,817.27
2017-10-19T00:49:44.490Z,817.30
2017-10-19T00:50:45.102Z,817.27
2017-10-19T00:51:45.766Z,817.26
2017-10-19T00:52:46.373Z,817.27
2017-10-19T00:53:46.984Z,817.27
2017-10-19T00:54:47.593Z,817.28
2017-10-19T00:55:48.207Z,817.25
2017-10-19T00:56:48.865Z,817.26
2017-10-19T00:57:49.474Z,817.28
2017-10-19T00:58:50.085Z,817.28
2017-10-19T00:59:50.693Z,817.29
2017-10-19T01:00:51.306Z,817.31
2017-10-19T01:01:51.923Z,817.33
2017-10-19T01:02:52.531Z,817.29
2017-10-19T01:03:53.141Z,817.35
2017-10-19T01:04:53.748Z,817.31
2017-10-19T01:05:54.364Z,817.32
2017-10-19T01:06:54.975Z,817.33
2017-10-19T01:07:55.587Z,817.31
2017-10-19T01:08:56.231Z,817.33
2017-10-19T01:09:56.837Z,817.37
2017-10-19T01:10:57.447Z,817.32
2017-10-19T01:11:58.106Z,817.30
2017-10-19T01:12:58.717Z,817.29
2017-10-19T01:13:59.328Z,817.27
2017-10-19T01:14:59.945Z,817.29
2017-10-19T01:16:00.549Z,817.27
2017-10-19T01:17:01.207Z,817.28
2017-10-19T01:18:01.819Z,817.20
2017-10-19T01:19:02.431Z,817.26
2017-10-19T01:20:03.056Z,817.24
2017-10-19T01:21:03.647Z,817.20
2017-10-19T01:22:04.257Z,817.20
2017-10-19T01:23:04.869Z,817.17
2017-10-19T01:24:05.480Z,817.18
2017-10-19T01:25:06.090Z,817.18
2017-10-19T01:26:06.705Z,817.15
2017-10-19T01:27:07.313Z,817.13
2017-10-19T01:28:07.923Z,817.16
2017-10-19T01:29:08.535Z,817.15
2017-10-19T01:30:09.171Z,817.17
2017-10-19T01:31:09.781Z,817.19
2017-10-19T01:32:10.421Z,817.17
2017-10-19T01:33:11.031Z,817.16
2017-10-19T01:34:11.640Z,817.14
2017-10-19T01:35:12.250Z,817.12
2017-10-19T01:36:12.859Z,817.12
2017-10-19T01:37:13.499Z,817.10
2017-10-19T01:38:14.111Z,817.10
2017-10-19T01:39:14.719Z,817.10
2017-10-19T01:40:15.336Z,817.14
2017-10-19T01:41:15.973Z,817.12
2017-10-19T01:42:16.588Z,817.11
2017-10-19T01:43:17.195Z,817.16
2017-10-19T01:44:17.804Z,817.13
2017-10-19T01:45:18.416Z,817.14
2017-10-19T01:46:19.025Z,817.19
2017-10-19T01:47:19.634Z,817.13
2017-10-19T01:48:20.249Z,817.18
2017-10-19T01:49:20.863Z,817.16
2017-10-19T01:50:21.479Z,817.11
2017-10-19T01:51:22.081Z,817.16
2017-10-19T01:52:22.689Z,817.12
2017-10-19T01:53:23.297Z,817.14
2017-10-19T01:54:23.913Z,817.11
2017-10-19T01:55:24.519Z,817.13
2017-10-19T01:56:25.134Z,817.11
2017-10-19T01:57:25.793Z,817.10
2017-10-19T01:58:26.425Z,817.09
2017-10-19T01:59:27.017Z,817.06
2017-10-19T02:00:27.623Z,817.03
2017-10-19T02:01:28.264Z,817.03
2017-10-19T02:02:28.931Z,817.02
2017-10-19T02:03:29.538Z,817.01
2017-10-19T02:04:30.149Z,816.98
2017-10-19T02:05:30.759Z,816.98
2017-10-19T02:06:31.367Z,817.00
2017-10-19T02:07:32.031Z,817.03
2017-10-19T02:08:32.639Z,817.01
2017-10-19T02:09:33.256Z,817.04
2017-10-19T02:10:33.862Z,817.10
2017-10-19T02:11:34.471Z,817.09
2017-10-19T02:12:35.086Z,817.11
2017-10-19T02:13:35.693Z,817.07
2017-10-19T02:14:36.332Z,817.10
2017-10-19T02:15:36.941Z,817.07
2017-10-19T02:16:37.551Z,817.06
2017-10-19T02:17:38.160Z,817.07
2017-10-19T02:18:38.771Z,817.01
2017-10-19T02:19:39.381Z,817.03
2017-10-19T02:20:39.994Z,817.04
2017-10-19T02:21:40.600Z,817.03
2017-10-19T02:22:41.213Z,817.07
2017-10-19T02:23:41.850Z,817.07
2017-10-19T02:24:42.460Z,817.07
2017-10-19T02:25:43.067Z,817.08
2017-10-19T02:26:43.676Z,817.09
2017-10-19T02:27:44.287Z,817.10
2017-10-19T02:28:44.903Z,817.13
2017-10-19T02:29:45.515Z,817.13
2017-10-19T02:30:46.126Z,817.14
2017-10-19T02:31:46.772Z,817.13
2017-10-19T02:32:47.378Z,817.14
2017-10-19T02:33:48.018Z,817.15
2017-10-19T02:34:48.633Z,817.18
2017-10-19T02:35:49.239Z,817.15
2017-10-19T02:36:49.878Z,817.15
2017-10-19T02:37:50.493Z,817.14
2017-10-19T02:38:51.100Z,817.12
2017-10-19T02:39:51.708Z,817.10
2017-10-19T02:40:52.316Z,817.10
2017-10-19T02:41:52.933Z,817.11
2017-10-19T02:42:53.596Z,817.12
2017-10-19T02:43:54.204Z,817.11
2017-10-19T02:44:54.816Z,817.07
2017-10-19T02:45:55.426Z,817.13
2017-10-19T02:46:56.039Z,817.15
2017-10-19T02:47:56.644Z,817.15
2017-10-19T02:48:57.254Z,817.14
2017-10-19T02:49:57.869Z,817.18
2017-10-19T02:50:58.475Z,817.16
2017-10-19T02:51:59.127Z,817.15
2017-10-19T02:52:59.748Z,817.18
2017-10-19T02:54:00.374Z,817.17
2017-10-19T02:55:01.013Z,817.17
2017-10-19T02:56:01.622Z,817.18
2017-10-19T02:57:02.237Z,817.16
2017-10-19T02:58:02.900Z,817.17
2017-10-19T02:59:03.507Z,817.16
2017-10-19T03:00:04.115Z,817.20
2017-10-19T03:01:04.727Z,817.16
2017-10-19T03:02:05.337Z,817.20
2017-10-19T03:03:06.027Z,817.19
2017-10-19T03:04:06.635Z,817.20
2017-10-19T03:05:07.246Z,817.21
2017-10-19T03:06:07.888Z,817.21
2017-10-19T03:07:08.498Z,817.23
2017-10-19T03:08:09.163Z,817.23
2017-10-19T03:09:09.802Z,817.25
2017-10-19T03:10:10.412Z,817.24
2017-10-19T03:11:11.021Z,817.24
2017-10-19T03:12:11.631Z,817.18
2017-10-19T03:13:12.290Z,817.20
2017-10-19T03:14:12.904Z,817.20
2017-10-19T03:15:13.512Z,817.16
2017-10-19T03:16:14.121Z,817.13
2017-10-19T03:17:14.731Z,817.11
2017-10-19T03:18:15.339Z,817.10
2017-10-19T03:19:15.950Z,817.09
2017-10-19T03:20:16.565Z,817.09
2017-10-19T03:21:17.204Z,817.05
2017-10-19T03:22:17.818Z,817.07
2017-10-19T03:23:18.466Z,817.07
2017-10-19T03:24:19.069Z,817.04
2017-10-19T03:25:19.680Z,817.02
2017-10-19T03:26:20.288Z,816.98
2017-10-19T03:27:20.957Z,816.98
2017-10-19T03:28:21.540Z,816.98
2017-10-19T03:29:22.149Z,817.00
2017-10-19T03:30:22.761Z,817.01
2017-10-19T03:31:23.368Z,817.00
2017-10-19T03:32:23.978Z,816.98
2017-10-19T03:33:24.641Z,817.03
2017-10-19T03:34:25.250Z,817.01
2017-10-19T03:35:25.865Z,817.00
2017-10-19T03:36:26.477Z,817.00
2017-10-19T03:37:27.083Z,817.01
2017-10-19T03:38:27.748Z,817.02
2017-10-19T03:39:28.353Z,816.97
2017-10-19T03:40:28.962Z,816.97
2017-10-19T03:41:29.575Z,816.96
2017-10-19T03:42:30.189Z,816.95
2017-10-19T03:43:30.844Z,816.90
2017-10-19T03:44:31.487Z,816.94
2017-10-19T03:45:32.103Z,816.91
2017-10-19T03:46:32.708Z,816.89
2017-10-19T03:47:33.318Z,816.85
2017-10-19T03:48:33.986Z,816.85
2017-10-19T03:49:34.595Z,816.88
2017-10-19T03:50:35.209Z,816.83
2017-10-19T03:51:35.850Z,816.80
2017-10-19T03:52:36.468Z,816.78
2017-10-19T03:53:37.075Z,816.78
2017-10-19T03:54:37.683Z,816.78
2017-10-19T03:55:38.324Z,816.78
2017-10-19T03:56:38.934Z,816.77
2017-10-19T03:57:39.574Z,816.81
2017-10-19T03:58:40.184Z,816.84
2017-10-19T03:59:40.803Z,816.82
2017-10-19T04:00:41.446Z,816.81
2017-10-19T04:01:42.058Z,816.78
2017-10-19T04:02:42.669Z,816.77
2017-10-19T04:03:43.277Z,816.76
2017-10-19T04:04:43.898Z,816.73
2017-10-19T04:05:44.502Z,816.70
2017-10-19T04:06:45.112Z,816.72
2017-10-19T04:07:45.727Z,816.69
2017-10-19T04:08:46.331Z,816.70
2017-10-19T04:09:46.946Z,816.70
2017-10-19T04:10:47.554Z,816.71
2017-10-19T04:11:48.167Z,816.70
2017-10-19T04:12:48.774Z,816.68
2017-10-19T04:13:49.464Z,816.60
2017-10-19T04:14:50.080Z,816.57
2017-10-19T04:15:50.688Z,816.55
2017-10-19T04:16:51.301Z,816.54
2017-10-19T04:17:51.912Z,816.56
2017-10-19T04:18:52.569Z,816.55
2017-10-19T04:19:53.184Z,816.55
2017-10-19T04:20:53.789Z,816.55
2017-10-19T04:21:54.399Z,816.53
2017-10-19T04:22:55.009Z,816.54
2017-10-19T04:23:55.669Z,816.53
2017-10-19T04:24:56.283Z,816.55
2017-10-19T04:25:56.894Z,816.55
2017-10-19T04:26:57.504Z,816.53
2017-10-19T04:27:58.120Z,816.57
2017-10-19T04:28:58.725Z,816.51
2017-10-19T04:29:59.343Z,816.51
2017-10-19T04:30:59.954Z,816.52
2017-10-19T04:32:00.561Z,816.52
2017-10-19T04:33:01.170Z,816.51
2017-10-19T04:34:01.778Z,816.57
2017-10-19T04:35:02.393Z,816.52
2017-10-19T04:36:03.000Z,816.51
2017-10-19T04:37:03.613Z,816.52
2017-10-19T04:38:04.222Z,816.48
2017-10-19T04:39:04.881Z,816.50
2017-10-19T04:40:05.521Z,816.52
2017-10-19T04:41:06.130Z,816.54
2017-10-19T04:42:06.755Z,816.55
2017-10-19T04:43:07.362Z,816.56
2017-10-19T04:44:07.969Z,816.57
2017-10-19T04:45:08.577Z,816.57
2017-10-19T04:46:09.223Z,816.57
2017-10-19T04:47:09.834Z,816.52
2017-10-19T04:48:10.439Z,816.53
2017-10-19T04:49:11.101Z,816.47
2017-10-19T04:50:11.709Z,816.50
2017-10-19T04:51:12.316Z,816.49
2017-10-19T04:52:12.926Z,816.48
2017-10-19T04:53:13.534Z,816.41
2017-10-19T04:54:14.144Z,816.37
2017-10-19T04:55:14.753Z,816.37
2017-10-19T04:56:15.363Z,816.38
2017-10-19T04:57:15.971Z,816.34
2017-10-19T04:58:16.580Z,816.36
2017-10-19T04:59:17.188Z,816.36
2017-10-19T05:00:17.797Z,816.38
2017-10-19T05:01:18.442Z,816.39
2017-10-19T05:02:19.053Z,816.36
2017-10-19T05:03:19.658Z,816.34
2017-10-19T05:04:20.320Z,816.36
2017-10-19T05:05:20.933Z,816.34
2017-10-19T05:06:21.539Z,816.35
2017-10-19T05:07:22.149Z,816.38
2017-10-19T05:08:22.764Z,816.37
2017-10-19T05:09:23.422Z,816.40
2017-10-19T05:10:24.037Z,816.39
2017-10-19T05:11:24.646Z,816.41
2017-10-19T05:12:25.254Z,816.41
2017-10-19T05:13:25.862Z,816.38
2017-10-19T05:14:26.477Z,816.37
2017-10-19T05:15:27.083Z,816.38
2017-10-19T05:16:27.694Z,816.38
2017-10-19T05:17:28.302Z,816.36
2017-10-19T05:18:28.939Z,816.37
2017-10-19T05:19:29.548Z,816.39
2017-10-19T05:20:30.165Z,816.43
2017-10-19T05:21:30.772Z,816.42
2017-10-19T05:22:31.380Z,816.42
2017-10-19T05:23:31.990Z,816.43
2017-10-19T05:24:32.603Z,816.46
2017-10-19T05:25:33.209Z,816.40
2017-10-19T05:26:33.816Z,816.42
2017-10-19T05:27:34.433Z,816.41
2017-10-19T05:28:35.040Z,816.42
2017-10-19T05:29:35.679Z,816.37
2017-10-19T05:30:36.290Z,816.37
2017-10-19T05:31:36.901Z,816.40
2017-10-19T05:32:37.511Z,816.39
2017-10-19T05:33:38.120Z,816.42
2017-10-19T05:34:38.729Z,816.39
2017-10-19T05:35:39.337Z,816.41
2017-10-19T05:36:39.948Z,816.39
2017-10-19T05:37:40.557Z,816.43
2017-10-19T05:38:41.166Z,816.45
2017-10-19T05:39:41.824Z,816.47
2017-10-19T05:40:42.435Z,816.48
2017-10-19T05:41:43.052Z,816.48
2017-10-19T05:42:43.658Z,816.49
2017-10-19T05:43:44.273Z,816.50
2017-10-19T05:44:44.881Z,816.51
2017-10-19T05:45:45.497Z,816.54
2017-10-19T05:46:46.103Z,816.56
2017-10-19T05:47:46.712Z,816.56
2017-10-19T05:48:47.322Z,816.58
2017-10-19T05:49:47.981Z,816.60
2017-10-19T05:50:48.597Z,816.62
2017-10-19T05:51:49.246Z,816.61
2017-10-19T05:52:49.890Z,816.63
2017-10-19T05:53:50.497Z,816.62
2017-10-19T05:54:51.138Z,816.58
2017-10-19T05:55:51.749Z,816.60
2017-10-19T05:56:52.363Z,816.61
2017-10-19T05:57:52.970Z,816.61
2017-10-19T05:58:53.585Z,816.63
2017-10-19T05:59:54.197Z,816.65
2017-10-19T06:00:54.843Z,816.66
2017-10-19T06:01:55.481Z,816.67
2017-10-19T06:02:56.092Z,816.70
2017-10-19T06:03:56.708Z,816.68
2017-10-19T06:04:57.315Z,816.67
2017-10-19T06:05:57.925Z,816.61
2017-10-19T06:06:58.535Z,816.57
2017-10-19T06:07:59.183Z,816.52
2017-10-19T06:08:59.794Z,816.51
2017-10-19T06:10:00.460Z,816.47
2017-10-19T06:11:01.066Z,816.46
2017-10-19T06:12:01.676Z,816.44
2017-10-19T06:13:02.288Z,816.46
2017-10-19T06:14:02.933Z,816.53
2017-10-19T06:15:03.540Z,816.53
2017-10-19T06:16:04.151Z,816.58
2017-10-19T06:17:04.761Z,816.63
2017-10-19T06:18:05.376Z,816.65
2017-10-19T06:19:05.991Z,816.66
2017-10-19T06:20:06.600Z,816.67
2017-10-19T06:21:07.210Z,816.72
2017-10-19T06:22:07.820Z,816.74
2017-10-19T06:23:08.431Z,816.75
2017-10-19T06:24:09.042Z,816.77
2017-10-19T06:25:09.702Z,816.77
2017-10-19T06:26:10.325Z,816.78
2017-10-19T06:27:10.935Z,816.76
2017-10-19T06:28:11.541Z,816.75
2017-10-19T06:29:12.150Z,816.75
2017-10-19T06:30:12.812Z,816.74
2017-10-19T06:31:13.422Z,816.74
2017-10-19T06:32:14.032Z,816.76
2017-10-19T06:33:14.644Z,816.79
2017-10-19T06:34:15.286Z,816.75
2017-10-19T06:35:15.895Z,816.78
2017-10-19T06:36:16.541Z,816.75
2017-10-19T06:37:17.154Z,816.75
2017-10-19T06:38:17.766Z,816.79
2017-10-19T06:39:18.374Z,816.79
2017-10-19T06:40:19.034Z,816.77
2017-10-19T06:41:19.644Z,816.82
2017-10-19T06:42:20.255Z,816.83
2017-10-19T06:43:20.865Z,816.81
2017-10-19T06:44:21.474Z,816.83
2017-10-19T06:45:22.084Z,816.83
2017-10-19T06:46:22.696Z,816.84
2017-10-19T06:47:23.306Z,816.84
2017-10-19T06:48:23.948Z,816.82
2017-10-19T06:49:24.564Z,816.85
2017-10-19T06:50:25.175Z,816.84
2017-10-19T06:51:25.787Z,816.85
2017-10-19T06:52:26.396Z,816.90
2017-10-19T06:53:27.006Z,816.90
2017-10-19T06:54:27.616Z,816.92
2017-10-19T06:55:28.227Z,816.90
2017-10-19T06:56:28.836Z,816.93
2017-10-19T06:57:29.448Z,816.90
2017-10-19T06:58:30.061Z,816.92
2017-10-19T06:59:30.670Z,816.93
2017-10-19T07:00:31.280Z,816.89
2017-10-19T07:01:31.892Z,816.91
2017-10-19T07:02:32.504Z,816.89
2017-10-19T07:03:33.120Z,816.88
2017-10-19T07:04:33.728Z,816.89
2017-10-19T07:05:34.387Z,816.91
2017-10-19T07:06:35.000Z,816.91
2017-10-19T07:07:35.642Z,816.90
2017-10-19T07:08:36.254Z,816.87
2017-10-19T07:09:36.866Z,816.86
2017-10-19T07:10:37.524Z,816.88
2017-10-19T07:11:38.139Z,816.88
2017-10-19T07:12:38.752Z,816.85
2017-10-19T07:13:39.360Z,816.86
2017-10-19T07:14:39.971Z,816.83
2017-10-19T07:15:40.633Z,816.85
2017-10-19T07:16:41.249Z,816.83
2017-10-19T07:17:41.864Z,816.84
2017-10-19T07:18:42.467Z,816.87
2017-10-19T07:19:43.108Z,816.85
2017-10-19T07:20:43.726Z,816.86
2017-10-19T07:21:44.346Z,816.86
2017-10-19T07:22:44.950Z,816.89
2017-10-19T07:23:45.562Z,816.83
2017-10-19T07:24:46.175Z,816.82
2017-10-19T07:25:46.818Z,816.86
2017-10-19T07:26:47.430Z,816.83
2017-10-19T07:27:48.075Z,816.82
2017-10-19T07:28:48.686Z,816.83
2017-10-19T07:29:49.296Z,816.82
2017-10-19T07:30:49.938Z,816.82
2017-10-19T07:31:50.551Z,816.80
2017-10-19T07:32:51.166Z,816.81
2017-10-19T07:33:51.775Z,816.83
2017-10-19T07:34:52.390Z,816.80
2017-10-19T07:35:53.087Z,816.78
2017-10-19T07:36:53.696Z,816.83
2017-10-19T07:37:54.314Z,816.80
2017-10-19T07:38:54.924Z,816.81
2017-10-19T07:39:55.537Z,816.85
2017-10-19T07:40:56.150Z,816.85
2017-10-19T07:41:56.765Z,816.84
2017-10-19T07:42:57.385Z,816.82
2017-10-19T07:43:57.999Z,816.84
2017-10-19T07:44:58.613Z,816.85
2017-10-19T07:45:59.278Z,816.86
2017-10-19T07:46:59.896Z,816.84
2017-10-19T07:48:00.508Z,816.85
2017-10-19T07:49:01.124Z,816.83
2017-10-19T07:50:01.738Z,816.83
2017-10-19T07:51:02.403Z,816.81
2017-10-19T07:52:03.017Z,816.83
2017-10-19T07:53:03.634Z,816.84
2017-10-19T07:54:04.247Z,816.82
2017-10-19T07:55:04.867Z,816.84
2017-10-19T07:56:05.479Z,816.84
2017-10-19T07:57:06.094Z,816.87
2017-10-19T07:58:06.710Z,816.83
2017-10-19T07:59:07.324Z,816.86
2017-10-19T08:00:07.939Z,816.81
2017-10-19T08:01:08.606Z,816.82
2017-10-19T08:02:09.221Z,816.84
2017-10-19T08:03:09.835Z,816.82
2017-10-19T08:04:10.450Z,816.87
2017-10-19T08:05:11.066Z,816.87
2017-10-19T08:06:11.686Z,816.88
2017-10-19T08:07:12.306Z,816.89
2017-10-19T08:08:12.922Z,816.88
2017-10-19T08:09:13.535Z,816.89
2017-10-19T08:10:14.153Z,816.88
2017-10-19T08:11:14.775Z,816.90
2017-10-19T08:12:15.383Z,816.88
2017-10-19T08:13:16.004Z,816.89
2017-10-19T08:14:16.623Z,816.90
2017-10-19T08:15:17.233Z,816.90
2017-10-19T08:16:17.851Z,816.94
2017-10-19T08:17:18.463Z,816.91
2017-10-19T08:18:19.080Z,816.93
2017-10-19T08:19:19.695Z,816.94
2017-10-19T08:20:20.312Z,816.90
2017-10-19T08:21:20.976Z,816.94
2017-10-19T08:22:21.597Z,816.96
2017-10-19T08:23:22.210Z,816.94
2017-10-19T08:24:22.841Z,816.96
2017-10-19T08:25:23.439Z,816.94
2017-10-19T08:26:24.105Z,816.98
2017-10-19T08:27:24.720Z,816.96
2017-10-19T08:28:25.334Z,816.98
2017-10-19T08:29:25.950Z,817.01
2017-10-19T08:30:26.570Z,817.03
2017-10-19T08:31:27.233Z,816.99
2017-10-19T08:32:27.855Z,816.96
2017-10-19T08:33:28.466Z,816.95
2017-10-19T08:34:29.117Z,816.95
2017-10-19T08:35:29.727Z,816.91
2017-10-19T08:36:30.341Z,816.86
2017-10-19T08:37:30.958Z,816.88
2017-10-19T08:38:31.574Z,816.86
2017-10-19T08:39:32.190Z,816.88
2017-10-19T08:40:32.810Z,816.86
2017-10-19T08:41:33.419Z,816.83
2017-10-19T08:42:34.039Z,816.84
2017-10-19T08:43:34.654Z,816.84
2017-10-19T08:44:35.269Z,816.79
2017-10-19T08:45:35.885Z,816.78
2017-10-19T08:46:36.549Z,816.79
2017-10-19T08:47:37.165Z,816.81
2017-10-19T08:48:37.782Z,816.79
2017-10-19T08:49:38.409Z,816.72
2017-10-19T08:50:39.016Z,816.74
2017-10-19T08:51:39.681Z,816.70
2017-10-19T08:52:40.298Z,816.72
2017-10-19T08:53:40.913Z,816.77
2017-10-19T08:54:41.576Z,816.76
2017-10-19T08:55:42.186Z,816.77
2017-10-19T08:56:42.852Z,816.75
2017-10-19T08:57:43.468Z,816.73
2017-10-19T08:58:44.082Z,816.70
2017-10-19T08:59:44.698Z,816.72
2017-10-19T09:00:45.320Z,816.67
2017-10-19T09:01:45.933Z,816.72
2017-10-19T09:02:46.550Z,816.65
2017-10-19T09:03:47.166Z,816.65
2017-10-19T09:04:47.782Z,816.68
2017-10-19T09:05:48.426Z,816.64
2017-10-19T09:06:49.093Z,816.67
2017-10-19T09:07:49.707Z,816.63
2017-10-19T09:08:50.329Z,816.64
2017-10-19T09:09:50.948Z,816.65
2017-10-19T09:10:51.568Z,816.63
2017-10-19T09:11:52.181Z,816.63
2017-10-19T09:12:52.794Z,816.60
2017-10-19T09:13:53.412Z,816.61
2017-10-19T09:14:54.034Z,816.59
2017-10-19T09:15:54.680Z,816.56
2017-10-19T09:16:55.351Z,816.59
2017-10-19T09:17:55.964Z,816.50
2017-10-19T09:18:56.585Z,816.51
2017-10-19T09:19:57.204Z,816.50
2017-10-19T09:20:57.818Z,816.47
2017-10-19T09:21:58.484Z,816.53
2017-10-19T09:22:59.101Z,816.54
2017-10-19T09:23:59.724Z,816.51
2017-10-19T09:25:00.336Z,816.53
2017-10-19T09:26:00.983Z,816.54
2017-10-19T09:27:01.649Z,816.53
2017-10-19T09:28:02.266Z,816.50
2017-10-19T09:29:02.888Z,816.52
2017-10-19T09:30:03.508Z,816.46
2017-10-19T09:31:04.161Z,816.45
2017-10-19T09:32:04.831Z,816.41
2017-10-19T09:33:05.444Z,816.44
2017-10-19T09:34:06.061Z,816.40
2017-10-19T09:35:06.678Z,816.37
2017-10-19T09:36:07.294Z,816.37
2017-10-19T09:37:07.911Z,816.40
2017-10-19T09:38:08.531Z,816.38
2017-10-19T09:39:09.180Z,816.37
2017-10-19T09:40:09.797Z,816.38
2017-10-19T09:41:10.415Z,816.38
2017-10-19T09:42:11.030Z,816.34
2017-10-19T09:43:11.646Z,816.36
2017-10-19T09:44:12.264Z,816.34
2017-10-19T09:45:12.886Z,816.33
2017-10-19T09:46:13.501Z,816.34
2017-10-19T09:47:14.169Z,816.31
2017-10-19T09:48:14.787Z,816.39
2017-10-19T09:49:15.404Z,816.37
2017-10-19T09:50:16.020Z,816.36
2017-10-19T09:51:16.639Z,816.38
2017-10-19T09:52:17.293Z,816.36
2017-10-19T09:53:17.905Z,816.38
2017-10-19T09:54:18.524Z,816.34
2017-10-19T09:55:19.146Z,816.32
2017-10-19T09:56:19.765Z,816.32
2017-10-19T09:57:20.435Z,816.38
2017-10-19T09:58:21.053Z,816.34
2017-10-19T09:59:21.705Z,816.36
2017-10-19T10:00:22.327Z,816.39
2017-10-19T10:01:22.938Z,816.38
2017-10-19T10:02:23.561Z,816.34
2017-10-19T10:03:24.181Z,816.41
2017-10-19T10:04:24.795Z,816.38
2017-10-19T10:05:25.414Z,816.39
2017-10-19T10:06:26.030Z,816.38
2017-10-19T10:07:26.704Z,816.39
2017-10-19T10:08:27.316Z,816.43
2017-10-19T10:09:27.934Z,816.41
2017-10-19T10:10:28.557Z,816.43
2017-10-19T10:11:29.184Z,816.35
2017-10-19T10:12:29.845Z,816.40
2017-10-19T10:13:30.462Z,816.42
2017-10-19T10:14:31.089Z,816.46
2017-10-19T10:15:31.735Z,816.40
2017-10-19T10:16:32.354Z,816.43
2017-10-19T10:17:32.975Z,816.40
2017-10-19T10:18:33.589Z,816.41
2017-10-19T10:19:34.206Z,816.40
2017-10-19T10:20:34.823Z,816.43
2017-10-19T10:21:35.442Z,816.37
2017-10-19T10:22:36.093Z,816.39
2017-10-19T10:23:36.708Z,816.38
2017-10-19T10:24:37.330Z,816.38
2017-10-19T10:25:37.951Z,816.37
2017-10-19T10:26:38.564Z,816.38
2017-10-19T10:27:39.231Z,816.38
2017-10-19T10:28:39.850Z,816.39
2017-10-19T10:29:40.472Z,816.40
2017-10-19T10:30:41.088Z,816.36
2017-10-19T10:31:41.737Z,816.36
2017-10-19T10:32:42.360Z,816.32
2017-10-19T10:33:42.975Z,816.39
2017-10-19T10:34:43.600Z,816.35
2017-10-19T10:35:44.210Z,816.39
2017-10-19T10:36:44.863Z,816.32
2017-10-19T10:37:45.481Z,816.36
2017-10-19T10:38:46.098Z,816.34
2017-10-19T10:39:46.717Z,816.28
2017-10-19T10:40:47.362Z,816.28
2017-10-19T10:41:47.985Z,816.29
2017-10-19T10:42:48.599Z,816.27
2017-10-19T10:43:49.217Z,816.26
2017-10-19T10:44:49.841Z,816.25
2017-10-19T10:45:50.490Z,816.24
2017-10-19T10:46:51.114Z,816.27
2017-10-19T10:47:51.785Z,816.27
2017-10-19T10:48:52.397Z,816.26
2017-10-19T10:49:53.022Z,816.25
2017-10-19T10:50:53.635Z,816.24
2017-10-19T10:51:54.253Z,816.18
2017-10-19T10:52:54.923Z,816.15
2017-10-19T10:53:55.545Z,816.20
2017-10-19T10:54:56.162Z,816.16
2017-10-19T10:55:56.781Z,816.12
2017-10-19T10:56:57.429Z,816.14
2017-10-19T10:57:58.097Z,816.16
2017-10-19T10:58:58.717Z,816.14
2017-10-19T10:59:59.337Z,816.13
2017-10-19T11:00:59.954Z,816.14
2017-10-19T11:02:00.572Z,816.15
2017-10-19T11:03:01.246Z,816.12
2017-10-19T11:04:01.869Z,816.12
2017-10-19T11:05:02.485Z,816.15
2017-10-19T11:06:03.102Z,816.11
2017-10-19T11:07:03.723Z,816.09
2017-10-19T11:08:04.368Z,816.02
2017-10-19T11:09:04.987Z,816.07
2017-10-19T11:10:05.605Z,816.04
2017-10-19T11:11:06.259Z,815.97
2017-10-19T11:12:06.873Z,816.02
2017-10-19T11:13:07.545Z,815.94
2017-10-19T11:14:08.165Z,815.97
2017-10-19T11:15:08.784Z,815.98
2017-10-19T11:16:09.404Z,815.95
2017-10-19T11:17:10.027Z,815.88
2017-10-19T11:18:10.701Z,815.93
2017-10-19T11:19:11.353Z,815.87
2017-10-19T11:20:11.972Z,815.88
2017-10-19T11:21:12.595Z,815.84
2017-10-19T11:22:13.214Z,815.88
2017-10-19T11:23:13.893Z,815.87
2017-10-19T11:24:14.515Z,815.84
2017-10-19T11:25:15.134Z,815.80
2017-10-19T11:26:15.753Z,815.79
2017-10-19T11:27:16.374Z,815.74
2017-10-19T11:28:17.046Z,815.72
2017-10-19T11:29:17.671Z,815.74
2017-10-19T11:30:18.293Z,815.70
2017-10-19T11:31:18.922Z,815.69
2017-10-19T11:32:19.534Z,815.64
2017-10-19T11:33:20.156Z,815.63
2017-10-19T11:34:20.776Z,815.63
2017-10-19T11:35:21.397Z,815.64
2017-10-19T11:36:22.018Z,815.60
2017-10-19T11:37:22.653Z,815.60
2017-10-19T11:38:23.260Z,815.60
2017-10-19T11:39:23.882Z,815.55
2017-10-19T11:40:24.501Z,815.56
2017-10-19T11:41:25.127Z,815.54
2017-10-19T11:42:25.746Z,815.56
2017-10-19T11:43:26.367Z,815.54
2017-10-19T11:44:26.989Z,815.53
2017-10-19T11:45:27.614Z,815.51
2017-10-19T11:46:28.238Z,815.50
2017-10-19T11:47:28.852Z,815.48
2017-10-19T11:48:29.529Z,815.44
2017-10-19T11:49:30.147Z,815.41
2017-10-19T11:50:30.766Z,815.41
2017-10-19T11:51:31.396Z,815.45
2017-10-19T11:52:32.013Z,815.43
2017-10-19T11:53:32.638Z,815.43
2017-10-19T11:54:33.256Z,815.48
2017-10-19T11:55:33.883Z,815.43
2017-10-19T11:56:34.502Z,815.42
2017-10-19T11:57:35.123Z,815.47
2017-10-19T11:58:35.746Z,815.49
2017-10-19T11:59:36.373Z,815.49
2017-10-19T12:00:36.993Z,815.49
2017-10-19T12:01:37.613Z,815.40
2017-10-19T12:02:38.236Z,815.44
2017-10-19T12:03:38.861Z,815.44
2017-10-19T12:04:39.483Z,815.43
2017-10-19T12:05:40.140Z,815.47
2017-10-19T12:06:40.760Z,815.44
2017-10-19T12:07:41.383Z,815.45
2017-10-19T12:08:42.054Z,815.46
2017-10-19T12:09:42.682Z,815.53
2017-10-19T12:10:43.301Z,815.58
2017-10-19T12:11:43.923Z,815.53
2017-10-19T12:12:44.545Z,815.51
2017-10-19T12:13:45.247Z,815.56
2017-10-19T12:14:45.869Z,815.55
2017-10-19T12:15:46.491Z,815.49
2017-10-19T12:16:47.117Z,815.50
2017-10-19T12:17:47.738Z,815.44
2017-10-19T12:18:48.360Z,815.43
2017-10-19T12:19:48.984Z,815.45
2017-10-19T12:20:49.605Z,815.43
2017-10-19T12:21:50.226Z,815.47
2017-10-19T12:22:50.847Z,815.47
2017-10-19T12:23:51.469Z,815.44
2017-10-19T12:24:52.093Z,815.48
2017-10-19T12:25:52.716Z,815.49
2017-10-19T12:26:53.346Z,815.49
2017-10-19T12:27:53.962Z,815.48
2017-10-19T12:28:54.640Z,815.53
2017-10-19T12:29:55.293Z,815.50
2017-10-19T12:30:55.913Z,815.49
2017-10-19T12:31:56.542Z,815.46
2017-10-19T12:32:57.162Z,815.50
2017-10-19T12:33:57.784Z,815.43
2017-10-19T12:34:58.441Z,815.45
2017-10-19T12:35:59.060Z,815.41